sensor_id;sensor_type;location;lat;lon;timestamp;pressure;altitude;pressure_sealevel;temperature;humidity
31092;BME280;67728;53.122;12.776;2023-08-06T00:00:57;100040.84;;;14.34;97.82
31092;BME280;67728;53.122;12.776;2023-08-06T00:02:28;100038.13;;;14.38;97.67
31092;BME280;67728;53.122;12.776;2023-08-06T00:03:59;100033.81;;;14.36;97.91
31092;BME280;67728;53.122;12.776;2023-08-06T00:05:32;100024.44;;;14.31;97.68
31092;BME280;67728;53.122;12.776;2023-08-06T00:07:04;100031.38;;;14.32;97.49
31092;BME280;67728;53.122;12.776;2023-08-06T00:08:35;100025.94;;;14.38;97.29
31092;BME280;67728;53.122;12.776;2023-08-06T00:10:07;100029.34;;;14.38;97.57
31092;BME280;67728;53.122;12.776;2023-08-06T00:11:38;100029.19;;;14.43;98.08
31092;BME280;67728;53.122;12.776;2023-08-06T00:13:11;100028.56;;;14.36;97.51
31092;BME280;67728;53.122;12.776;2023-08-06T00:14:42;100018.16;;;14.36;97.96
31092;BME280;67728;53.122;12.776;2023-08-06T00:16:14;100028.56;;;14.36;98.79
31092;BME280;67728;53.122;12.776;2023-08-06T00:17:46;100017.25;;;14.38;98.32
31092;BME280;67728;53.122;12.776;2023-08-06T00:19:16;100011.75;;;14.44;98.40
31092;BME280;67728;53.122;12.776;2023-08-06T00:20:49;100013.53;;;14.43;98.22
31092;BME280;67728;53.122;12.776;2023-08-06T00:22:21;100015.81;;;14.51;97.71
31092;BME280;67728;53.122;12.776;2023-08-06T00:23:51;100017.44;;;14.53;97.67
31092;BME280;67728;53.122;12.776;2023-08-06T00:25:23;100010.19;;;14.40;97.54
31092;BME280;67728;53.122;12.776;2023-08-06T00:26:54;100018.88;;;14.40;97.25
31092;BME280;67728;53.122;12.776;2023-08-06T00:28:25;100017.63;;;14.49;97.70
31092;BME280;67728;53.122;12.776;2023-08-06T00:29:56;100016.19;;;14.42;97.39
31092;BME280;67728;53.122;12.776;2023-08-06T00:31:28;100007.59;;;14.40;97.61
31092;BME280;67728;53.122;12.776;2023-08-06T00:32:59;100010.06;;;14.43;97.87
31092;BME280;67728;53.122;12.776;2023-08-06T00:34:30;100014.63;;;14.38;97.64
31092;BME280;67728;53.122;12.776;2023-08-06T00:36:03;100004.31;;;14.34;97.88
31092;BME280;67728;53.122;12.776;2023-08-06T00:37:33;100014.13;;;14.28;98.02
31092;BME280;67728;53.122;12.776;2023-08-06T00:39:05;100008.84;;;14.29;97.67
31092;BME280;67728;53.122;12.776;2023-08-06T00:40:37;100005.00;;;14.18;98.50
31092;BME280;67728;53.122;12.776;2023-08-06T00:42:09;99997.16;;;14.18;97.97
31092;BME280;67728;53.122;12.776;2023-08-06T00:43:39;99994.19;;;14.27;98.15
31092;BME280;67728;53.122;12.776;2023-08-06T00:45:11;99991.75;;;14.22;98.29
31092;BME280;67728;53.122;12.776;2023-08-06T00:46:41;99989.53;;;14.13;98.62
31092;BME280;67728;53.122;12.776;2023-08-06T00:48:14;99983.59;;;14.10;99.36
31092;BME280;67728;53.122;12.776;2023-08-06T00:49:45;99978.38;;;14.10;99.60
31092;BME280;67728;53.122;12.776;2023-08-06T00:51:18;99975.66;;;14.13;99.85
31092;BME280;67728;53.122;12.776;2023-08-06T00:52:49;99977.16;;;14.18;99.85
31092;BME280;67728;53.122;12.776;2023-08-06T00:54:21;99975.19;;;14.23;99.84
31092;BME280;67728;53.122;12.776;2023-08-06T00:55:52;99977.47;;;14.31;99.20
31092;BME280;67728;53.122;12.776;2023-08-06T00:57:24;99976.75;;;14.27;98.90
31092;BME280;67728;53.122;12.776;2023-08-06T00:58:56;99969.91;;;14.25;99.45
31092;BME280;67728;53.122;12.776;2023-08-06T01:00:27;99969.19;;;14.21;99.50
31092;BME280;67728;53.122;12.776;2023-08-06T01:01:59;99968.94;;;14.07;99.49
31092;BME280;67728;53.122;12.776;2023-08-06T01:03:30;99970.81;;;14.04;99.47
31092;BME280;67728;53.122;12.776;2023-08-06T01:05:02;99975.69;;;14.11;99.77
31092;BME280;67728;53.122;12.776;2023-08-06T01:06:40;99968.72;;;14.12;99.79
31092;BME280;67728;53.122;12.776;2023-08-06T01:08:21;99966.75;;;14.17;99.69
31092;BME280;67728;53.122;12.776;2023-08-06T01:10:07;99966.72;;;14.18;99.33
31092;BME280;67728;53.122;12.776;2023-08-06T01:11:47;99969.50;;;14.14;99.27
31092;BME280;67728;53.122;12.776;2023-08-06T01:13:26;99965.34;;;14.10;99.15
31092;BME280;67728;53.122;12.776;2023-08-06T01:15:02;99959.47;;;14.05;99.93
31092;BME280;67728;53.122;12.776;2023-08-06T01:16:39;99957.50;;;14.10;99.40
31092;BME280;67728;53.122;12.776;2023-08-06T01:18:11;99958.63;;;14.04;99.72
31092;BME280;67728;53.122;12.776;2023-08-06T01:19:42;99958.63;;;14.04;99.72
31092;BME280;67728;53.122;12.776;2023-08-06T01:21:15;99952.38;;;14.08;99.79
31092;BME280;67728;53.122;12.776;2023-08-06T01:22:46;99952.16;;;14.13;99.96
31092;BME280;67728;53.122;12.776;2023-08-06T01:24:17;99950.22;;;14.18;100.00
31092;BME280;67728;53.122;12.776;2023-08-06T01:25:55;99940.69;;;14.17;99.96
31092;BME280;67728;53.122;12.776;2023-08-06T01:27:30;99940.81;;;14.14;99.88
31092;BME280;67728;53.122;12.776;2023-08-06T01:29:07;99945.00;;;14.18;100.00
31092;BME280;67728;53.122;12.776;2023-08-06T01:30:42;99934.69;;;14.15;100.00
31092;BME280;67728;53.122;12.776;2023-08-06T01:32:14;99932.97;;;14.14;100.00
31092;BME280;67728;53.122;12.776;2023-08-06T01:33:47;99934.56;;;14.18;99.92
31092;BME280;67728;53.122;12.776;2023-08-06T01:35:19;99938.75;;;14.22;100.00
31092;BME280;67728;53.122;12.776;2023-08-06T01:36:54;99933.38;;;14.25;100.00
31092;BME280;67728;53.122;12.776;2023-08-06T01:38:25;99937.56;;;14.29;99.75
31092;BME280;67728;53.122;12.776;2023-08-06T01:39:58;99933.25;;;14.28;99.47
31092;BME280;67728;53.122;12.776;2023-08-06T01:41:29;99939.66;;;14.21;99.68
31092;BME280;67728;53.122;12.776;2023-08-06T01:43:00;99934.31;;;14.24;99.29
31092;BME280;67728;53.122;12.776;2023-08-06T01:44:31;99937.09;;;14.19;99.08
31092;BME280;67728;53.122;12.776;2023-08-06T01:46:02;99934.19;;;14.27;99.67
31092;BME280;67728;53.122;12.776;2023-08-06T01:47:33;99925.97;;;14.16;99.76
31092;BME280;67728;53.122;12.776;2023-08-06T01:49:05;99933.16;;;14.11;99.68
31092;BME280;67728;53.122;12.776;2023-08-06T01:50:36;99931.09;;;14.17;99.62
31092;BME280;67728;53.122;12.776;2023-08-06T01:52:09;99929.56;;;14.13;99.99
31092;BME280;67728;53.122;12.776;2023-08-06T01:53:41;99926.63;;;14.21;99.92
31092;BME280;67728;53.122;12.776;2023-08-06T01:55:11;99931.06;;;14.19;99.83
31092;BME280;67728;53.122;12.776;2023-08-06T01:56:43;99927.78;;;14.14;99.77
31092;BME280;67728;53.122;12.776;2023-08-06T01:58:14;99922.44;;;14.17;99.91
31092;BME280;67728;53.122;12.776;2023-08-06T01:59:45;99931.06;;;14.19;100.00
31092;BME280;67728;53.122;12.776;2023-08-06T02:01:16;99929.22;;;14.21;100.00
31092;BME280;67728;53.122;12.776;2023-08-06T02:02:47;99934.31;;;14.24;100.00
31092;BME280;67728;53.122;12.776;2023-08-06T02:04:18;99929.94;;;14.24;99.76
31092;BME280;67728;53.122;12.776;2023-08-06T02:05:49;99919.44;;;14.26;99.56
31092;BME280;67728;53.122;12.776;2023-08-06T02:07:23;99918.66;;;14.24;100.00
31092;BME280;67728;53.122;12.776;2023-08-06T02:08:53;99923.03;;;14.23;100.00
31092;BME280;67728;53.122;12.776;2023-08-06T02:10:25;99918.53;;;14.27;99.85
31092;BME280;67728;53.122;12.776;2023-08-06T02:11:55;99923.81;;;14.25;99.95
31092;BME280;67728;53.122;12.776;2023-08-06T02:13:27;99915.06;;;14.26;99.82
31092;BME280;67728;53.122;12.776;2023-08-06T02:14:58;99915.00;;;14.28;99.59
31092;BME280;67728;53.122;12.776;2023-08-06T02:16:29;99914.22;;;14.26;100.00
31092;BME280;67728;53.122;12.776;2023-08-06T02:18:00;99908.16;;;14.25;100.00
31092;BME280;67728;53.122;12.776;2023-08-06T02:19:31;99909.78;;;14.28;99.47
31092;BME280;67728;53.122;12.776;2023-08-06T02:21:02;99912.16;;;14.34;99.88
31092;BME280;67728;53.122;12.776;2023-08-06T02:22:35;99913.00;;;14.34;100.00
31092;BME280;67728;53.122;12.776;2023-08-06T02:24:06;99917.16;;;14.38;100.00
31092;BME280;67728;53.122;12.776;2023-08-06T02:25:37;99912.06;;;14.35;99.49
31092;BME280;67728;53.122;12.776;2023-08-06T02:27:08;99909.63;;;14.32;99.07
31092;BME280;67728;53.122;12.776;2023-08-06T02:28:40;99918.94;;;14.38;99.77
31092;BME280;67728;53.122;12.776;2023-08-06T02:30:10;99914.09;;;14.29;99.22
31092;BME280;67728;53.122;12.776;2023-08-06T02:31:42;99917.28;;;14.35;99.32
31092;BME280;67728;53.122;12.776;2023-08-06T02:33:13;99907.97;;;14.30;99.12
31092;BME280;67728;53.122;12.776;2023-08-06T02:34:44;99907.28;;;14.25;100.00
31092;BME280;67728;53.122;12.776;2023-08-06T02:36:16;99904.50;;;14.29;99.52
31092;BME280;67728;53.122;12.776;2023-08-06T02:37:48;99907.97;;;14.30;99.70
31092;BME280;67728;53.122;12.776;2023-08-06T02:39:19;99907.13;;;14.29;99.79
31092;BME280;67728;53.122;12.776;2023-08-06T02:40:50;99902.72;;;14.31;99.71
31092;BME280;67728;53.122;12.776;2023-08-06T02:42:22;99906.25;;;14.29;99.86
31092;BME280;67728;53.122;12.776;2023-08-06T02:43:53;99893.75;;;14.37;99.98
31092;BME280;67728;53.122;12.776;2023-08-06T02:45:25;99895.47;;;14.38;100.00
31092;BME280;67728;53.122;12.776;2023-08-06T02:46:55;99901.34;;;14.43;99.52
31092;BME280;67728;53.122;12.776;2023-08-06T02:48:27;99893.69;;;14.38;99.14
31092;BME280;67728;53.122;12.776;2023-08-06T02:49:58;99893.75;;;14.37;98.84
31092;BME280;67728;53.122;12.776;2023-08-06T02:51:29;99891.50;;;14.28;99.08
31092;BME280;67728;53.122;12.776;2023-08-06T02:53:01;99883.63;;;14.29;99.87
31092;BME280;67728;53.122;12.776;2023-08-06T02:54:33;99877.19;;;14.18;100.00
31092;BME280;67728;53.122;12.776;2023-08-06T02:56:04;99872.56;;;14.24;99.81
31092;BME280;67728;53.122;12.776;2023-08-06T02:57:35;99875.22;;;14.23;99.97
31092;BME280;67728;53.122;12.776;2023-08-06T02:59:06;99880.19;;;14.29;100.00
31092;BME280;67728;53.122;12.776;2023-08-06T03:00:38;99869.66;;;14.32;100.00
31092;BME280;67728;53.122;12.776;2023-08-06T03:02:08;99869.44;;;14.36;99.91
31092;BME280;67728;53.122;12.776;2023-08-06T03:03:40;99866.94;;;14.33;99.55
31092;BME280;67728;53.122;12.776;2023-08-06T03:05:10;99865.97;;;14.36;99.52
31092;BME280;67728;53.122;12.776;2023-08-06T03:06:43;99865.84;;;14.39;99.36
31092;BME280;67728;53.122;12.776;2023-08-06T03:08:15;99871.78;;;14.43;99.23
31092;BME280;67728;53.122;12.776;2023-08-06T03:09:47;99871.06;;;14.39;98.85
31092;BME280;67728;53.122;12.776;2023-08-06T03:11:18;99862.31;;;14.40;99.00
31092;BME280;67728;53.122;12.776;2023-08-06T03:12:50;99861.28;;;14.24;99.31
31092;BME280;67728;53.122;12.776;2023-08-06T03:14:20;99863.94;;;14.22;99.34
31092;BME280;67728;53.122;12.776;2023-08-06T03:15:53;99855.41;;;14.19;100.00
31092;BME280;67728;53.122;12.776;2023-08-06T03:17:24;99860.41;;;14.23;99.76
31092;BME280;67728;53.122;12.776;2023-08-06T03:18:55;99863.03;;;14.23;99.39
31092;BME280;67728;53.122;12.776;2023-08-06T03:20:26;99862.44;;;14.17;99.69
31092;BME280;67728;53.122;12.776;2023-08-06T03:21:58;99860.03;;;14.12;99.97
31092;BME280;67728;53.122;12.776;2023-08-06T03:23:31;99858.22;;;14.14;99.84
31092;BME280;67728;53.122;12.776;2023-08-06T03:25:01;99843.38;;;14.16;100.00
31092;BME280;67728;53.122;12.776;2023-08-06T03:26:33;99839.78;;;14.19;100.00
31092;BME280;67728;53.122;12.776;2023-08-06T03:28:04;99842.44;;;14.17;99.98
31092;BME280;67728;53.122;12.776;2023-08-06T03:29:35;99833.63;;;14.20;100.00
31092;BME280;67728;53.122;12.776;2023-08-06T03:31:06;99831.88;;;14.20;100.00
31092;BME280;67728;53.122;12.776;2023-08-06T03:32:37;99837.72;;;14.25;100.00
31092;BME280;67728;53.122;12.776;2023-08-06T03:34:08;99834.25;;;14.25;100.00
31092;BME280;67728;53.122;12.776;2023-08-06T03:35:40;99836.69;;;14.29;99.80
31092;BME280;67728;53.122;12.776;2023-08-06T03:37:10;99843.41;;;14.35;100.00
31092;BME280;67728;53.122;12.776;2023-08-06T03:38:43;99835.50;;;14.36;100.00
31092;BME280;67728;53.122;12.776;2023-08-06T03:40:14;99836.16;;;14.42;100.00
31092;BME280;67728;53.122;12.776;2023-08-06T03:41:45;99832.84;;;14.38;99.39
31092;BME280;67728;53.122;12.776;2023-08-06T03:43:16;99833.53;;;14.42;100.00
31092;BME280;67728;53.122;12.776;2023-08-06T03:44:48;99840.50;;;14.41;99.33
31092;BME280;67728;53.122;12.776;2023-08-06T03:46:18;99839.81;;;14.38;99.90
31092;BME280;67728;53.122;12.776;2023-08-06T03:47:50;99831.81;;;14.22;99.62
31092;BME280;67728;53.122;12.776;2023-08-06T03:49:20;99832.22;;;14.13;100.00
31092;BME280;67728;53.122;12.776;2023-08-06T03:50:52;99836.97;;;14.03;100.00
31092;BME280;67728;53.122;12.776;2023-08-06T03:52:23;99836.31;;;13.98;100.00
31092;BME280;67728;53.122;12.776;2023-08-06T03:53:56;99831.19;;;13.97;100.00
31092;BME280;67728;53.122;12.776;2023-08-06T03:55:27;99827.81;;;13.95;100.00
31092;BME280;67728;53.122;12.776;2023-08-06T03:56:58;99828.69;;;13.94;100.00
31092;BME280;67728;53.122;12.776;2023-08-06T03:58:29;99818.16;;;13.97;100.00
31092;BME280;67728;53.122;12.776;2023-08-06T04:00:00;99821.72;;;13.94;100.00
31092;BME280;67728;53.122;12.776;2023-08-06T04:01:32;99822.28;;;14.01;100.00
31092;BME280;67728;53.122;12.776;2023-08-06T04:03:02;99819.38;;;14.08;100.00
31092;BME280;67728;53.122;12.776;2023-08-06T04:04:34;99826.84;;;14.16;100.00
31092;BME280;67728;53.122;12.776;2023-08-06T04:06:06;99825.75;;;14.21;100.00
31092;BME280;67728;53.122;12.776;2023-08-06T04:07:37;99817.31;;;14.15;100.00
31092;BME280;67728;53.122;12.776;2023-08-06T04:09:10;99817.94;;;14.01;100.00
31092;BME280;67728;53.122;12.776;2023-08-06T04:10:41;99816.09;;;14.03;100.00
31092;BME280;67728;53.122;12.776;2023-08-06T04:12:12;99817.66;;;14.07;100.00
31092;BME280;67728;53.122;12.776;2023-08-06T04:13:43;99808.50;;;13.99;100.00
31092;BME280;67728;53.122;12.776;2023-08-06T04:15:15;99803.22;;;14.00;100.00
31092;BME280;67728;53.122;12.776;2023-08-06T04:16:45;99798.81;;;14.01;100.00
31092;BME280;67728;53.122;12.776;2023-08-06T04:18:17;99797.06;;;14.01;100.00
31092;BME280;67728;53.122;12.776;2023-08-06T04:19:50;99802.03;;;14.07;100.00
31092;BME280;67728;53.122;12.776;2023-08-06T04:21:21;99796.72;;;14.09;100.00
31092;BME280;67728;53.122;12.776;2023-08-06T04:22:54;99792.72;;;14.02;100.00
31092;BME280;67728;53.122;12.776;2023-08-06T04:24:26;99788.41;;;14.01;100.00
31092;BME280;67728;53.122;12.776;2023-08-06T04:25:58;99796.03;;;14.05;100.00
31092;BME280;67728;53.122;12.776;2023-08-06T04:27:29;99780.19;;;14.10;100.00
31092;BME280;67728;53.122;12.776;2023-08-06T04:29:00;99786.16;;;14.12;100.00
31092;BME280;67728;53.122;12.776;2023-08-06T04:30:31;99781.88;;;14.11;100.00
31092;BME280;67728;53.122;12.776;2023-08-06T04:32:05;99769.63;;;14.13;100.00
31092;BME280;67728;53.122;12.776;2023-08-06T04:33:37;99766.06;;;14.14;100.00
31092;BME280;67728;53.122;12.776;2023-08-06T04:35:09;99771.09;;;14.18;100.00
31092;BME280;67728;53.122;12.776;2023-08-06T04:36:39;99767.91;;;14.12;100.00
31092;BME280;67728;53.122;12.776;2023-08-06T04:38:11;99772.00;;;14.17;100.00
31092;BME280;67728;53.122;12.776;2023-08-06T04:39:43;99767.88;;;14.13;100.00
31092;BME280;67728;53.122;12.776;2023-08-06T04:41:15;99766.88;;;14.16;100.00
31092;BME280;67728;53.122;12.776;2023-08-06T04:42:45;99772.84;;;14.18;100.00
31092;BME280;67728;53.122;12.776;2023-08-06T04:44:17;99762.28;;;14.21;100.00
31092;BME280;67728;53.122;12.776;2023-08-06T04:45:48;99766.44;;;14.25;100.00
31092;BME280;67728;53.122;12.776;2023-08-06T04:47:20;99755.72;;;14.31;100.00
31092;BME280;67728;53.122;12.776;2023-08-06T04:48:52;99765.53;;;14.26;100.00
31092;BME280;67728;53.122;12.776;2023-08-06T04:50:23;99759.13;;;14.33;100.00
31092;BME280;67728;53.122;12.776;2023-08-06T04:51:54;99763.22;;;14.38;100.00
31092;BME280;67728;53.122;12.776;2023-08-06T04:53:25;99761.41;;;14.41;100.00
31092;BME280;67728;53.122;12.776;2023-08-06T04:54:58;99760.44;;;14.43;100.00
31092;BME280;67728;53.122;12.776;2023-08-06T04:56:29;99774.25;;;14.45;100.00
31092;BME280;67728;53.122;12.776;2023-08-06T04:58:00;99761.13;;;14.47;100.00
31092;BME280;67728;53.122;12.776;2023-08-06T04:59:32;99759.34;;;14.47;100.00
31092;BME280;67728;53.122;12.776;2023-08-06T05:01:02;99768.03;;;14.48;100.00
31092;BME280;67728;53.122;12.776;2023-08-06T05:02:34;99761.81;;;14.50;100.00
31092;BME280;67728;53.122;12.776;2023-08-06T05:04:04;99763.81;;;14.45;100.00
31092;BME280;67728;53.122;12.776;2023-08-06T05:05:36;99759.13;;;14.52;100.00
31092;BME280;67728;53.122;12.776;2023-08-06T05:07:08;99748.69;;;14.52;100.00
31092;BME280;67728;53.122;12.776;2023-08-06T05:08:39;99745.94;;;14.55;100.00
31092;BME280;67728;53.122;12.776;2023-08-06T05:10:11;99751.16;;;14.55;100.00
31092;BME280;67728;53.122;12.776;2023-08-06T05:11:43;99751.03;;;14.58;100.00
31092;BME280;67728;53.122;12.776;2023-08-06T05:13:13;99748.22;;;14.62;100.00
31092;BME280;67728;53.122;12.776;2023-08-06T05:14:45;99755.88;;;14.65;100.00
31092;BME280;67728;53.122;12.776;2023-08-06T05:16:15;99752.34;;;14.66;100.00
31092;BME280;67728;53.122;12.776;2023-08-06T05:17:47;99748.00;;;14.67;100.00
31092;BME280;67728;53.122;12.776;2023-08-06T05:19:19;99749.47;;;14.72;100.00
31092;BME280;67728;53.122;12.776;2023-08-06T05:20:49;99754.06;;;14.67;100.00
31092;BME280;67728;53.122;12.776;2023-08-06T05:22:21;99750.31;;;14.73;100.00
31092;BME280;67728;53.122;12.776;2023-08-06T05:23:52;99751.84;;;14.77;100.00
31092;BME280;67728;53.122;12.776;2023-08-06T05:25:25;99746.38;;;14.81;100.00
31092;BME280;67728;53.122;12.776;2023-08-06T05:26:55;99741.03;;;14.84;100.00
31092;BME280;67728;53.122;12.776;2023-08-06T05:28:27;99744.34;;;14.88;100.00
31092;BME280;67728;53.122;12.776;2023-08-06T05:29:57;99737.28;;;14.90;99.99
31092;BME280;67728;53.122;12.776;2023-08-06T05:31:29;99743.97;;;14.95;100.00
31092;BME280;67728;53.122;12.776;2023-08-06T05:33:00;99738.53;;;15.00;100.00
31092;BME280;67728;53.122;12.776;2023-08-06T05:34:31;99740.06;;;15.04;99.74
31092;BME280;67728;53.122;12.776;2023-08-06T05:36:03;99739.91;;;15.07;99.93
31092;BME280;67728;53.122;12.776;2023-08-06T05:37:34;99734.41;;;15.13;100.00
31092;BME280;67728;53.122;12.776;2023-08-06T05:39:06;99738.63;;;15.16;100.00
31092;BME280;67728;53.122;12.776;2023-08-06T05:40:38;99739.38;;;15.18;100.00
31092;BME280;67728;53.122;12.776;2023-08-06T05:42:09;99734.91;;;15.20;100.00
31092;BME280;67728;53.122;12.776;2023-08-06T05:43:40;99735.72;;;15.22;98.87
31092;BME280;67728;53.122;12.776;2023-08-06T05:45:11;99732.25;;;15.21;99.79
31092;BME280;67728;53.122;12.776;2023-08-06T05:46:42;99733.25;;;15.19;99.06
31092;BME280;67728;53.122;12.776;2023-08-06T05:48:14;99728.69;;;15.22;98.98
31092;BME280;67728;53.122;12.776;2023-08-06T05:49:44;99733.09;;;15.22;99.21
31092;BME280;67728;53.122;12.776;2023-08-06T05:51:16;99728.69;;;15.22;99.18
31092;BME280;67728;53.122;12.776;2023-08-06T05:52:47;99728.53;;;15.25;99.11
31092;BME280;67728;53.122;12.776;2023-08-06T05:54:18;99727.41;;;15.31;98.67
31092;BME280;67728;53.122;12.776;2023-08-06T05:55:50;99726.34;;;15.35;98.73
31092;BME280;67728;53.122;12.776;2023-08-06T05:57:22;99724.78;;;15.31;99.03
31092;BME280;67728;53.122;12.776;2023-08-06T05:58:53;99721.16;;;15.33;98.87
31092;BME280;67728;53.122;12.776;2023-08-06T06:00:24;99722.00;;;15.34;98.76
31092;BME280;67728;53.122;12.776;2023-08-06T06:01:55;99723.56;;;15.38;100.00
31092;BME280;67728;53.122;12.776;2023-08-06T06:03:26;99726.78;;;15.43;99.52
31092;BME280;67728;53.122;12.776;2023-08-06T06:04:57;99721.47;;;15.44;99.10
31092;BME280;67728;53.122;12.776;2023-08-06T06:06:29;99717.81;;;15.48;99.05
31092;BME280;67728;53.122;12.776;2023-08-06T06:07:59;99708.88;;;15.52;98.89
31092;BME280;67728;53.122;12.776;2023-08-06T06:09:31;99715.88;;;15.52;99.93
31092;BME280;67728;53.122;12.776;2023-08-06T06:11:03;99710.50;;;15.55;99.50
31092;BME280;67728;53.122;12.776;2023-08-06T06:12:34;99715.66;;;15.57;98.63
31092;BME280;67728;53.122;12.776;2023-08-06T06:14:05;99713.72;;;15.60;99.17
31092;BME280;67728;53.122;12.776;2023-08-06T06:15:37;99713.91;;;15.57;99.62
31092;BME280;67728;53.122;12.776;2023-08-06T06:17:08;99715.72;;;15.55;98.41
31092;BME280;67728;53.122;12.776;2023-08-06T06:18:39;99716.13;;;15.47;98.01
31092;BME280;67728;53.122;12.776;2023-08-06T06:20:10;99717.41;;;15.56;97.64
31092;BME280;67728;53.122;12.776;2023-08-06T06:21:41;99706.06;;;15.57;96.83
31092;BME280;67728;53.122;12.776;2023-08-06T06:23:13;99711.78;;;15.64;98.04
31092;BME280;67728;53.122;12.776;2023-08-06T06:24:44;99707.91;;;15.71;97.55
31092;BME280;67728;53.122;12.776;2023-08-06T06:26:17;99704.94;;;15.61;97.37
31092;BME280;67728;53.122;12.776;2023-08-06T06:27:48;99703.53;;;15.71;98.21
31092;BME280;67728;53.122;12.776;2023-08-06T06:29:19;99705.75;;;15.79;98.15
31092;BME280;67728;53.122;12.776;2023-08-06T06:30:51;99700.94;;;15.71;97.77
31092;BME280;67728;53.122;12.776;2023-08-06T06:32:22;99702.38;;;15.77;97.54
31092;BME280;67728;53.122;12.776;2023-08-06T06:33:53;99704.78;;;15.81;96.76
31092;BME280;67728;53.122;12.776;2023-08-06T06:35:25;99699.03;;;15.90;97.84
31092;BME280;67728;53.122;12.776;2023-08-06T06:36:56;99690.97;;;15.95;97.16
31092;BME280;67728;53.122;12.776;2023-08-06T06:38:27;99699.25;;;16.03;97.34
31092;BME280;67728;53.122;12.776;2023-08-06T06:39:58;99692.47;;;15.99;97.55
31092;BME280;67728;53.122;12.776;2023-08-06T06:41:31;99696.53;;;16.04;96.92
31092;BME280;67728;53.122;12.776;2023-08-06T06:43:03;99689.53;;;16.05;97.27
31092;BME280;67728;53.122;12.776;2023-08-06T06:44:34;99688.25;;;16.12;97.23
31092;BME280;67728;53.122;12.776;2023-08-06T06:46:06;99688.09;;;16.15;98.30
31092;BME280;67728;53.122;12.776;2023-08-06T06:47:38;99695.69;;;16.20;97.50
31092;BME280;67728;53.122;12.776;2023-08-06T06:49:08;99691.22;;;16.22;97.19
31092;BME280;67728;53.122;12.776;2023-08-06T06:50:40;99692.91;;;16.23;96.02
31092;BME280;67728;53.122;12.776;2023-08-06T06:52:10;99692.56;;;16.13;96.73
31092;BME280;67728;53.122;12.776;2023-08-06T06:53:42;99694.25;;;16.14;96.12
31092;BME280;67728;53.122;12.776;2023-08-06T06:55:13;99698.28;;;16.20;97.02
31092;BME280;67728;53.122;12.776;2023-08-06T06:56:46;99697.06;;;16.27;96.96
31092;BME280;67728;53.122;12.776;2023-08-06T06:58:17;99695.94;;;16.31;96.41
31092;BME280;67728;53.122;12.776;2023-08-06T06:59:48;99697.81;;;16.29;96.44
31092;BME280;67728;53.122;12.776;2023-08-06T07:01:20;99699.66;;;16.27;97.15
31092;BME280;67728;53.122;12.776;2023-08-06T07:02:52;99694.00;;;16.34;97.46
31092;BME280;67728;53.122;12.776;2023-08-06T07:04:23;99686.16;;;16.34;97.38
31092;BME280;67728;53.122;12.776;2023-08-06T07:05:57;99692.16;;;16.36;96.94
31092;BME280;67728;53.122;12.776;2023-08-06T07:07:29;99695.78;;;16.34;96.53
31092;BME280;67728;53.122;12.776;2023-08-06T07:09:00;99692.66;;;16.43;96.22
31092;BME280;67728;53.122;12.776;2023-08-06T07:10:32;99692.22;;;16.50;96.70
31092;BME280;67728;53.122;12.776;2023-08-06T07:12:05;99690.22;;;16.55;96.37
31092;BME280;67728;53.122;12.776;2023-08-06T07:13:36;99690.97;;;16.57;96.88
31092;BME280;67728;53.122;12.776;2023-08-06T07:15:08;99693.88;;;16.53;95.86
31092;BME280;67728;53.122;12.776;2023-08-06T07:16:40;99689.50;;;16.52;95.58
31092;BME280;67728;53.122;12.776;2023-08-06T07:18:10;99691.81;;;16.58;95.88
31092;BME280;67728;53.122;12.776;2023-08-06T07:19:42;99686.53;;;16.59;95.91
31092;BME280;67728;53.122;12.776;2023-08-06T07:21:13;99692.97;;;16.52;96.16
31092;BME280;67728;53.122;12.776;2023-08-06T07:22:44;99686.75;;;16.39;96.39
31092;BME280;67728;53.122;12.776;2023-08-06T07:24:15;99689.28;;;16.41;95.96
31092;BME280;67728;53.122;12.776;2023-08-06T07:25:46;99693.00;;;16.37;95.29
31092;BME280;67728;53.122;12.776;2023-08-06T07:27:18;99693.16;;;16.34;95.30
31092;BME280;67728;53.122;12.776;2023-08-06T07:28:50;99693.00;;;16.37;96.08
31092;BME280;67728;53.122;12.776;2023-08-06T07:30:21;99691.97;;;16.39;96.19
31092;BME280;67728;53.122;12.776;2023-08-06T07:31:52;99693.41;;;16.45;97.13
31092;BME280;67728;53.122;12.776;2023-08-06T07:33:25;99687.31;;;16.44;96.75
31092;BME280;67728;53.122;12.776;2023-08-06T07:34:56;99682.78;;;16.48;95.95
31092;BME280;67728;53.122;12.776;2023-08-06T07:36:30;99684.25;;;16.53;96.27
31092;BME280;67728;53.122;12.776;2023-08-06T07:38:02;99683.38;;;16.53;96.29
31092;BME280;67728;53.122;12.776;2023-08-06T07:39:34;99682.38;;;16.55;96.77
31092;BME280;67728;53.122;12.776;2023-08-06T07:41:04;99678.91;;;16.55;96.69
31092;BME280;67728;53.122;12.776;2023-08-06T07:42:37;99674.75;;;16.51;95.57
31092;BME280;67728;53.122;12.776;2023-08-06T07:44:09;99677.63;;;16.46;96.42
31092;BME280;67728;53.122;12.776;2023-08-06T07:45:40;99677.44;;;16.49;95.81
31092;BME280;67728;53.122;12.776;2023-08-06T07:47:11;99669.78;;;16.46;96.15
31092;BME280;67728;53.122;12.776;2023-08-06T07:48:43;99679.41;;;16.46;96.55
31092;BME280;67728;53.122;12.776;2023-08-06T07:50:14;99685.47;;;16.31;96.30
31092;BME280;67728;53.122;12.776;2023-08-06T07:51:45;99681.41;;;16.25;95.83
31092;BME280;67728;53.122;12.776;2023-08-06T07:53:17;99679.91;;;16.37;95.93
31092;BME280;67728;53.122;12.776;2023-08-06T07:54:48;99688.00;;;16.48;97.57
31092;BME280;67728;53.122;12.776;2023-08-06T07:56:19;99683.66;;;16.33;95.94